sensor_id;sensor_type;location;lat;lon;timestamp;P1;durP1;ratioP1;P2;durP2;ratioP2
68872;SDS011;55907;50.806;12.882;2023-02-28T00:02:34;5.0;;;4.5;;
68872;SDS011;55907;50.806;12.882;2023-02-28T00:05:36;5.6;;;4.5;;
68872;SDS011;55907;50.806;12.882;2023-02-28T00:08:37;5.9;;;4.5;;
68872;SDS011;55907;50.806;12.882;2023-02-28T00:11:39;5.1;;;4.6;;
68872;SDS011;55907;50.806;12.882;2023-02-28T00:14:40;5.5;;;4.5;;
68872;SDS011;55907;50.806;12.882;2023-02-28T00:17:42;4.5;;;3.9;;
68872;SDS011;55907;50.806;12.882;2023-02-28T00:20:44;6.2;;;4.6;;
68872;SDS011;55907;50.806;12.882;2023-02-28T00:23:45;6.3;;;4.3;;
68872;SDS011;55907;50.806;12.882;2023-02-28T00:26:47;5.6;;;4.5;;
68872;SDS011;55907;50.806;12.882;2023-02-28T00:29:48;6.0;;;4.4;;
68872;SDS011;55907;50.806;12.882;2023-02-28T00:32:50;5.4;;;4.3;;
68872;SDS011;55907;50.806;12.882;2023-02-28T00:35:52;5.2;;;4.4;;
68872;SDS011;55907;50.806;12.882;2023-02-28T00:38:53;5.0;;;4.2;;
68872;SDS011;55907;50.806;12.882;2023-02-28T00:41:55;5.6;;;4.6;;
68872;SDS011;55907;50.806;12.882;2023-02-28T00:47:58;5.9;;;5.0;;
68872;SDS011;55907;50.806;12.882;2023-02-28T00:51:00;6.9;;;4.7;;
68872;SDS011;55907;50.806;12.882;2023-02-28T00:54:01;6.3;;;4.7;;
68872;SDS011;55907;50.806;12.882;2023-02-28T01:00:05;5.2;;;4.3;;
68872;SDS011;55907;50.806;12.882;2023-02-28T01:03:06;5.9;;;4.3;;
68872;SDS011;55907;50.806;12.882;2023-02-28T01:06:08;6.4;;;4.7;;
68872;SDS011;55907;50.806;12.882;2023-02-28T01:12:11;5.1;;;4.5;;
68872;SDS011;55907;50.806;12.882;2023-02-28T01:15:13;5.8;;;4.8;;
68872;SDS011;55907;50.806;12.882;2023-02-28T01:21:16;7.3;;;4.3;;
68872;SDS011;55907;50.806;12.882;2023-02-28T01:24:18;5.2;;;4.1;;
68872;SDS011;55907;50.806;12.882;2023-02-28T01:27:19;6.1;;;4.2;;
68872;SDS011;55907;50.806;12.882;2023-02-28T01:30:21;6.0;;;4.1;;
68872;SDS011;55907;50.806;12.882;2023-02-28T01:33:24;6.4;;;4.2;;
68872;SDS011;55907;50.806;12.882;2023-02-28T01:36:24;6.1;;;4.5;;
68872;SDS011;55907;50.806;12.882;2023-02-28T01:39:26;5.9;;;4.2;;
68872;SDS011;55907;50.806;12.882;2023-02-28T01:42:27;6.3;;;4.3;;
68872;SDS011;55907;50.806;12.882;2023-02-28T01:45:30;5.9;;;4.3;;
68872;SDS011;55907;50.806;12.882;2023-02-28T01:48:32;6.9;;;4.8;;
68872;SDS011;55907;50.806;12.882;2023-02-28T01:51:34;5.6;;;4.2;;
68872;SDS011;55907;50.806;12.882;2023-02-28T01:54:34;6.6;;;4.5;;
68872;SDS011;55907;50.806;12.882;2023-02-28T01:57:37;5.8;;;4.6;;
68872;SDS011;55907;50.806;12.882;2023-02-28T02:00:37;6.2;;;4.6;;
68872;SDS011;55907;50.806;12.882;2023-02-28T02:03:39;5.9;;;4.4;;
68872;SDS011;55907;50.806;12.882;2023-02-28T02:06:42;6.6;;;4.6;;
68872;SDS011;55907;50.806;12.882;2023-02-28T02:09:42;5.9;;;4.5;;
68872;SDS011;55907;50.806;12.882;2023-02-28T02:12:53;5.2;;;4.7;;
68872;SDS011;55907;50.806;12.882;2023-02-28T02:15:47;7.5;;;4.9;;
68872;SDS011;55907;50.806;12.882;2023-02-28T02:18:47;7.2;;;4.4;;
68872;SDS011;55907;50.806;12.882;2023-02-28T02:21:55;6.6;;;4.3;;
68872;SDS011;55907;50.806;12.882;2023-02-28T02:27:57;7.4;;;4.5;;
68872;SDS011;55907;50.806;12.882;2023-02-28T02:30:58;5.7;;;4.5;;
68872;SDS011;55907;50.806;12.882;2023-02-28T02:36:58;6.7;;;4.7;;
68872;SDS011;55907;50.806;12.882;2023-02-28T02:40:00;6.1;;;4.2;;
68872;SDS011;55907;50.806;12.882;2023-02-28T02:43:01;5.3;;;4.3;;
68872;SDS011;55907;50.806;12.882;2023-02-28T02:44:22;unavailable;;;unavailable;;
68872;SDS011;55907;50.806;12.882;2023-02-28T02:44:48;unavailable;;;unavailable;;
68872;SDS011;55907;50.806;12.882;2023-02-28T02:46:02;6.4;;;4.5;;
68872;SDS011;55907;50.806;12.882;2023-02-28T02:47:35;unavailable;;;unavailable;;
68872;SDS011;55907;50.806;12.882;2023-02-28T02:48:55;unavailable;;;unavailable;;
68872;SDS011;55907;50.806;12.882;2023-02-28T02:49:25;5.8;;;4.4;;
68872;SDS011;55907;50.806;12.882;2023-02-28T02:52:06;7.2;;;4.7;;
68872;SDS011;55907;50.806;12.882;2023-02-28T02:55:07;7.4;;;5.0;;
68872;SDS011;55907;50.806;12.882;2023-02-28T02:58:09;5.8;;;4.6;;
68872;SDS011;55907;50.806;12.882;2023-02-28T03:01:10;6.3;;;5.0;;
68872;SDS011;55907;50.806;12.882;2023-02-28T03:04:12;5.3;;;4.8;;
68872;SDS011;55907;50.806;12.882;2023-02-28T03:07:13;7.1;;;4.5;;
68872;SDS011;55907;50.806;12.882;2023-02-28T03:16:23;6.1;;;4.9;;
68872;SDS011;55907;50.806;12.882;2023-02-28T03:19:24;6.6;;;5.2;;
68872;SDS011;55907;50.806;12.882;2023-02-28T03:22:29;7.5;;;5.3;;
68872;SDS011;55907;50.806;12.882;2023-02-28T03:25:27;7.0;;;5.4;;
68872;SDS011;55907;50.806;12.882;2023-02-28T03:28:27;6.3;;;5.2;;
68872;SDS011;55907;50.806;12.882;2023-02-28T03:31:27;7.5;;;5.5;;
68872;SDS011;55907;50.806;12.882;2023-02-28T03:34:28;7.7;;;5.2;;
68872;SDS011;55907;50.806;12.882;2023-02-28T03:37:29;6.7;;;5.4;;
68872;SDS011;55907;50.806;12.882;2023-02-28T03:40:32;7.0;;;5.1;;
68872;SDS011;55907;50.806;12.882;2023-02-28T03:43:34;6.2;;;4.9;;
68872;SDS011;55907;50.806;12.882;2023-02-28T03:46:35;6.0;;;4.5;;
68872;SDS011;55907;50.806;12.882;2023-02-28T03:49:36;6.5;;;5.2;;
68872;SDS011;55907;50.806;12.882;2023-02-28T03:52:38;7.2;;;5.0;;
68872;SDS011;55907;50.806;12.882;2023-02-28T03:55:39;8.2;;;6.2;;
68872;SDS011;55907;50.806;12.882;2023-02-28T03:58:41;7.2;;;5.4;;
68872;SDS011;55907;50.806;12.882;2023-02-28T04:01:42;6.8;;;5.2;;
68872;SDS011;55907;50.806;12.882;2023-02-28T04:04:44;7.8;;;5.8;;
68872;SDS011;55907;50.806;12.882;2023-02-28T04:07:45;7.2;;;5.0;;
68872;SDS011;55907;50.806;12.882;2023-02-28T04:10:48;6.7;;;5.3;;
68872;SDS011;55907;50.806;12.882;2023-02-28T04:13:48;7.9;;;5.9;;
68872;SDS011;55907;50.806;12.882;2023-02-28T04:16:50;8.1;;;6.1;;
68872;SDS011;55907;50.806;12.882;2023-02-28T04:19:52;8.5;;;6.1;;
68872;SDS011;55907;50.806;12.882;2023-02-28T04:22:53;8.0;;;5.6;;
68872;SDS011;55907;50.806;12.882;2023-02-28T04:25:55;7.3;;;5.8;;
68872;SDS011;55907;50.806;12.882;2023-02-28T04:28:57;9.9;;;6.0;;
68872;SDS011;55907;50.806;12.882;2023-02-28T04:31:59;8.4;;;6.4;;
68872;SDS011;55907;50.806;12.882;2023-02-28T04:35:00;7.5;;;6.2;;
68872;SDS011;55907;50.806;12.882;2023-02-28T04:38:01;8.5;;;6.3;;
68872;SDS011;55907;50.806;12.882;2023-02-28T04:41:03;9.3;;;6.3;;
68872;SDS011;55907;50.806;12.882;2023-02-28T04:44:05;8.1;;;6.3;;
68872;SDS011;55907;50.806;12.882;2023-02-28T04:47:06;7.5;;;5.8;;
68872;SDS011;55907;50.806;12.882;2023-02-28T04:50:08;7.9;;;6.2;;
68872;SDS011;55907;50.806;12.882;2023-02-28T04:53:10;8.1;;;6.4;;
68872;SDS011;55907;50.806;12.882;2023-02-28T04:56:13;9.0;;;6.6;;
68872;SDS011;55907;50.806;12.882;2023-02-28T04:59:13;8.8;;;6.9;;
68872;SDS011;55907;50.806;12.882;2023-02-28T05:02:15;9.5;;;6.7;;
68872;SDS011;55907;50.806;12.882;2023-02-28T05:05:16;8.3;;;6.2;;
68872;SDS011;55907;50.806;12.882;2023-02-28T05:08:18;10.4;;;6.9;;
68872;SDS011;55907;50.806;12.882;2023-02-28T05:11:20;9.5;;;7.1;;
68872;SDS011;55907;50.806;12.882;2023-02-28T05:17:23;10.0;;;6.7;;
68872;SDS011;55907;50.806;12.882;2023-02-28T05:20:25;8.4;;;6.5;;
68872;SDS011;55907;50.806;12.882;2023-02-28T05:23:26;8.7;;;6.6;;
68872;SDS011;55907;50.806;12.882;2023-02-28T05:26:28;10.0;;;6.6;;
68872;SDS011;55907;50.806;12.882;2023-02-28T05:29:30;10.1;;;7.1;;
68872;SDS011;55907;50.806;12.882;2023-02-28T05:32:31;10.9;;;7.7;;
68872;SDS011;55907;50.806;12.882;2023-02-28T05:35:33;10.8;;;7.5;;
68872;SDS011;55907;50.806;12.882;2023-02-28T05:38:34;13.1;;;8.6;;
68872;SDS011;55907;50.806;12.882;2023-02-28T05:41:36;11.8;;;7.7;;
68872;SDS011;55907;50.806;12.882;2023-02-28T05:44:38;12.6;;;8.0;;
68872;SDS011;55907;50.806;12.882;2023-02-28T05:47:39;11.1;;;8.1;;
68872;SDS011;55907;50.806;12.882;2023-02-28T05:50:41;13.4;;;8.9;;
68872;SDS011;55907;50.806;12.882;2023-02-28T05:53:43;12.3;;;8.3;;
68872;SDS011;55907;50.806;12.882;2023-02-28T05:56:44;12.7;;;7.9;;
68872;SDS011;55907;50.806;12.882;2023-02-28T05:59:46;10.1;;;8.0;;
68872;SDS011;55907;50.806;12.882;2023-02-28T06:02:48;11.2;;;7.8;;
68872;SDS011;55907;50.806;12.882;2023-02-28T06:05:49;13.7;;;8.5;;
68872;SDS011;55907;50.806;12.882;2023-02-28T06:08:51;12.6;;;8.2;;
68872;SDS011;55907;50.806;12.882;2023-02-28T06:11:52;12.7;;;8.3;;
68872;SDS011;55907;50.806;12.882;2023-02-28T06:14:54;11.6;;;8.4;;
68872;SDS011;55907;50.806;12.882;2023-02-28T06:17:56;11.3;;;8.1;;
68872;SDS011;55907;50.806;12.882;2023-02-28T06:20:57;12.2;;;8.9;;
68872;SDS011;55907;50.806;12.882;2023-02-28T06:23:59;12.5;;;8.2;;
68872;SDS011;55907;50.806;12.882;2023-02-28T06:27:01;16.7;;;11.3;;
68872;SDS011;55907;50.806;12.882;2023-02-28T06:30:02;13.5;;;9.9;;
68872;SDS011;55907;50.806;12.882;2023-02-28T06:33:04;12.3;;;8.7;;
68872;SDS011;55907;50.806;12.882;2023-02-28T06:36:06;12.0;;;8.5;;
68872;SDS011;55907;50.806;12.882;2023-02-28T06:39:07;12.9;;;8.7;;
68872;SDS011;55907;50.806;12.882;2023-02-28T06:42:09;12.7;;;8.6;;
68872;SDS011;55907;50.806;12.882;2023-02-28T06:48:12;11.7;;;8.5;;
68872;SDS011;55907;50.806;12.882;2023-02-28T06:51:15;12.9;;;9.0;;
68872;SDS011;55907;50.806;12.882;2023-02-28T06:54:15;13.6;;;9.6;;
68872;SDS011;55907;50.806;12.882;2023-02-28T06:57:17;12.8;;;9.0;;
68872;SDS011;55907;50.806;12.882;2023-02-28T07:00:19;13.9;;;10.1;;
68872;SDS011;55907;50.806;12.882;2023-02-28T07:03:20;12.7;;;9.2;;
68872;SDS011;55907;50.806;12.882;2023-02-28T07:06:22;14.2;;;10.0;;
68872;SDS011;55907;50.806;12.882;2023-02-28T07:09:23;11.9;;;8.8;;
68872;SDS011;55907;50.806;12.882;2023-02-28T07:12:25;13.5;;;9.0;;
68872;SDS011;55907;50.806;12.882;2023-02-28T07:15:27;13.3;;;9.4;;
68872;SDS011;55907;50.806;12.882;2023-02-28T07:18:28;12.5;;;9.4;;
68872;SDS011;55907;50.806;12.882;2023-02-28T07:21:30;15.1;;;9.2;;
68872;SDS011;55907;50.806;12.882;2023-02-28T07:24:31;15.4;;;10.9;;
68872;SDS011;55907;50.806;12.882;2023-02-28T07:27:33;12.8;;;9.1;;
68872;SDS011;55907;50.806;12.882;2023-02-28T07:30:35;12.6;;;8.8;;
68872;SDS011;55907;50.806;12.882;2023-02-28T07:33:37;13.3;;;9.1;;
68872;SDS011;55907;50.806;12.882;2023-02-28T07:36:38;13.8;;;9.4;;
68872;SDS011;55907;50.806;12.882;2023-02-28T07:39:40;13.1;;;8.9;;
68872;SDS011;55907;50.806;12.882;2023-02-28T07:42:41;15.5;;;10.0;;
68872;SDS011;55907;50.806;12.882;2023-02-28T07:45:43;14.4;;;9.9;;
68872;SDS011;55907;50.806;12.882;2023-02-28T07:48:44;16.4;;;9.9;;
68872;SDS011;55907;50.806;12.882;2023-02-28T07:51:46;14.2;;;9.6;;
68872;SDS011;55907;50.806;12.882;2023-02-28T07:54:47;12.4;;;9.1;;
68872;SDS011;55907;50.806;12.882;2023-02-28T07:57:49;13.1;;;9.3;;
68872;SDS011;55907;50.806;12.882;2023-02-28T08:00:51;12.5;;;8.4;;
68872;SDS011;55907;50.806;12.882;2023-02-28T08:03:52;12.1;;;8.7;;
68872;SDS011;55907;50.806;12.882;2023-02-28T08:06:54;12.4;;;8.7;;
68872;SDS011;55907;50.806;12.882;2023-02-28T08:09:55;12.2;;;8.6;;
68872;SDS011;55907;50.806;12.882;2023-02-28T08:12:57;11.5;;;8.7;;
68872;SDS011;55907;50.806;12.882;2023-02-28T08:16:00;13.6;;;8.6;;
68872;SDS011;55907;50.806;12.882;2023-02-28T08:19:00;12.8;;;8.7;;
68872;SDS011;55907;50.806;12.882;2023-02-28T08:22:02;9.7;;;7.9;;
68872;SDS011;55907;50.806;12.882;2023-02-28T08:25:04;9.9;;;8.4;;
68872;SDS011;55907;50.806;12.882;2023-02-28T08:28:05;10.9;;;8.0;;
68872;SDS011;55907;50.806;12.882;2023-02-28T08:31:07;11.5;;;8.4;;
68872;SDS011;55907;50.806;12.882;2023-02-28T08:34:09;11.0;;;7.9;;
68872;SDS011;55907;50.806;12.882;2023-02-28T08:37:10;10.3;;;8.5;;
68872;SDS011;55907;50.806;12.882;2023-02-28T08:40:11;10.6;;;8.5;;
68872;SDS011;55907;50.806;12.882;2023-02-28T08:43:13;10.9;;;9.1;;
68872;SDS011;55907;50.806;12.882;2023-02-28T08:46:15;11.6;;;9.7;;
68872;SDS011;55907;50.806;12.882;2023-02-28T08:49:16;10.4;;;9.3;;
68872;SDS011;55907;50.806;12.882;2023-02-28T08:52:18;10.7;;;9.6;;
68872;SDS011;55907;50.806;12.882;2023-02-28T08:55:19;11.1;;;9.9;;
68872;SDS011;55907;50.806;12.882;2023-02-28T08:58:21;11.0;;;9.9;;
68872;SDS011;55907;50.806;12.882;2023-02-28T09:01:23;10.9;;;9.3;;
68872;SDS011;55907;50.806;12.882;2023-02-28T09:04:24;10.1;;;9.1;;
68872;SDS011;55907;50.806;12.882;2023-02-28T09:07:26;10.5;;;9.4;;
68872;SDS011;55907;50.806;12.882;2023-02-28T09:10:27;10.0;;;8.2;;
68872;SDS011;55907;50.806;12.882;2023-02-28T09:13:29;8.7;;;5.8;;
68872;SDS011;55907;50.806;12.882;2023-02-28T09:16:31;6.9;;;4.2;;
68872;SDS011;55907;50.806;12.882;2023-02-28T09:19:32;7.1;;;4.2;;
68872;SDS011;55907;50.806;12.882;2023-02-28T09:22:33;6.5;;;4.0;;
68872;SDS011;55907;50.806;12.882;2023-02-28T09:25:35;5.8;;;3.7;;
68872;SDS011;55907;50.806;12.882;2023-02-28T09:28:36;7.2;;;3.9;;
68872;SDS011;55907;50.806;12.882;2023-02-28T09:31:38;7.8;;;4.2;;
68872;SDS011;55907;50.806;12.882;2023-02-28T09:34:39;6.9;;;4.1;;
68872;SDS011;55907;50.806;12.882;2023-02-28T09:37:41;7.5;;;4.2;;
68872;SDS011;55907;50.806;12.882;2023-02-28T09:40:47;6.8;;;4.2;;
68872;SDS011;55907;50.806;12.882;2023-02-28T09:43:44;6.7;;;4.5;;
68872;SDS011;55907;50.806;12.882;2023-02-28T09:46:46;5.8;;;3.9;;
68872;SDS011;55907;50.806;12.882;2023-02-28T09:49:47;6.3;;;4.2;;
68872;SDS011;55907;50.806;12.882;2023-02-28T09:52:48;6.5;;;4.3;;
68872;SDS011;55907;50.806;12.882;2023-02-28T09:55:50;6.9;;;4.2;;
68872;SDS011;55907;50.806;12.882;2023-02-28T09:58:52;6.4;;;4.3;;
68872;SDS011;55907;50.806;12.882;2023-02-28T10:01:54;6.2;;;4.6;;
68872;SDS011;55907;50.806;12.882;2023-02-28T10:04:54;6.1;;;4.3;;
68872;SDS011;55907;50.806;12.882;2023-02-28T10:07:59;6.3;;;4.3;;
68872;SDS011;55907;50.806;12.882;2023-02-28T10:10:57;7.2;;;4.4;;
68872;SDS011;55907;50.806;12.882;2023-02-28T10:13:59;7.4;;;4.3;;
68872;SDS011;55907;50.806;12.882;2023-02-28T10:17:01;6.3;;;4.4;;
68872;SDS011;55907;50.806;12.882;2023-02-28T10:20:02;6.5;;;4.5;;
68872;SDS011;55907;50.806;12.882;2023-02-28T10:23:04;7.8;;;4.2;;
68872;SDS011;55907;50.806;12.882;2023-02-28T10:26:08;6.4;;;4.6;;
68872;SDS011;55907;50.806;12.882;2023-02-28T10:29:07;6.0;;;4.4;;
68872;SDS011;55907;50.806;12.882;2023-02-28T10:32:08;6.9;;;4.6;;
68872;SDS011;55907;50.806;12.882;2023-02-28T10:35:14;6.7;;;4.7;;
68872;SDS011;55907;50.806;12.882;2023-02-28T10:38:14;8.2;;;4.9;;
68872;SDS011;55907;50.806;12.882;2023-02-28T10:41:13;7.7;;;4.9;;
68872;SDS011;55907;50.806;12.882;2023-02-28T10:44:14;7.1;;;4.7;;
68872;SDS011;55907;50.806;12.882;2023-02-28T10:47:15;8.6;;;5.0;;
68872;SDS011;55907;50.806;12.882;2023-02-28T10:53:25;7.8;;;4.7;;
68872;SDS011;55907;50.806;12.882;2023-02-28T10:56:19;7.1;;;4.9;;
68872;SDS011;55907;50.806;12.882;2023-02-28T10:59:26;8.7;;;5.7;;
68872;SDS011;55907;50.806;12.882;2023-02-28T11:02:29;8.0;;;5.2;;
68872;SDS011;55907;50.806;12.882;2023-02-28T11:05:24;7.2;;;5.0;;
68872;SDS011;55907;50.806;12.882;2023-02-28T11:08:25;8.4;;;5.0;;
68872;SDS011;55907;50.806;12.882;2023-02-28T11:11:27;6.7;;;4.8;;
68872;SDS011;55907;50.806;12.882;2023-02-28T11:14:28;6.9;;;4.8;;
68872;SDS011;55907;50.806;12.882;2023-02-28T11:17:30;8.2;;;5.1;;
68872;SDS011;55907;50.806;12.882;2023-02-28T11:20:31;8.7;;;4.8;;
68872;SDS011;55907;50.806;12.882;2023-02-28T11:23:32;8.3;;;5.6;;
68872;SDS011;55907;50.806;12.882;2023-02-28T11:26:35;7.8;;;5.1;;
68872;SDS011;55907;50.806;12.882;2023-02-28T11:29:35;8.5;;;5.9;;
68872;SDS011;55907;50.806;12.882;2023-02-28T11:32:36;9.3;;;5.8;;
68872;SDS011;55907;50.806;12.882;2023-02-28T11:35:38;7.9;;;5.3;;
68872;SDS011;55907;50.806;12.882;2023-02-28T11:38:40;7.5;;;5.4;;
68872;SDS011;55907;50.806;12.882;2023-02-28T11:41:47;11.8;;;8.3;;
68872;SDS011;55907;50.806;12.882;2023-02-28T11:44:45;13.8;;;11.7;;
68872;SDS011;55907;50.806;12.882;2023-02-28T11:47:45;13.9;;;11.7;;
68872;SDS011;55907;50.806;12.882;2023-02-28T11:50:47;12.7;;;11.4;;
68872;SDS011;55907;50.806;12.882;2023-02-28T11:53:50;14.0;;;11.9;;
68872;SDS011;55907;50.806;12.882;2023-02-28T11:56:49;13.0;;;11.6;;
68872;SDS011;55907;50.806;12.882;2023-02-28T11:59:52;12.9;;;11.5;;
68872;SDS011;55907;50.806;12.882;2023-02-28T12:02:55;12.4;;;10.9;;
68872;SDS011;55907;50.806;12.882;2023-02-28T12:05:55;13.1;;;11.7;;
68872;SDS011;55907;50.806;12.882;2023-02-28T12:09:04;14.1;;;11.8;;
68872;SDS011;55907;50.806;12.882;2023-02-28T12:11:57;12.3;;;10.9;;
68872;SDS011;55907;50.806;12.882;2023-02-28T12:15:02;13.7;;;12.2;;
68872;SDS011;55907;50.806;12.882;2023-02-28T12:24:06;13.0;;;11.8;;
68872;SDS011;55907;50.806;12.882;2023-02-28T12:27:05;14.5;;;12.4;;
68872;SDS011;55907;50.806;12.882;2023-02-28T12:30:08;14.7;;;13.2;;
68872;SDS011;55907;50.806;12.882;2023-02-28T12:33:07;13.0;;;11.7;;
68872;SDS011;55907;50.806;12.882;2023-02-28T12:36:09;12.6;;;11.3;;
68872;SDS011;55907;50.806;12.882;2023-02-28T12:39:10;14.2;;;11.8;;
68872;SDS011;55907;50.806;12.882;2023-02-28T12:42:12;13.3;;;11.9;;
68872;SDS011;55907;50.806;12.882;2023-02-28T12:45:15;13.1;;;11.7;;
68872;SDS011;55907;50.806;12.882;2023-02-28T12:48:15;12.6;;;11.3;;
68872;SDS011;55907;50.806;12.882;2023-02-28T12:51:16;13.3;;;11.9;;
68872;SDS011;55907;50.806;12.882;2023-02-28T12:54:21;12.7;;;11.4;;
68872;SDS011;55907;50.806;12.882;2023-02-28T12:57:21;12.6;;;11.3;;
68872;SDS011;55907;50.806;12.882;2023-02-28T13:00:22;13.6;;;12.3;;
68872;SDS011;55907;50.806;12.882;2023-02-28T13:03:28;12.7;;;11.1;;
68872;SDS011;55907;50.806;12.882;2023-02-28T13:09:25;12.5;;;11.2;;
68872;SDS011;55907;50.806;12.882;2023-02-28T13:12:27;12.0;;;10.8;;
68872;SDS011;55907;50.806;12.882;2023-02-28T13:15:28;13.0;;;11.6;;
68872;SDS011;55907;50.806;12.882;2023-02-28T13:21:32;12.5;;;10.7;;
68872;SDS011;55907;50.806;12.882;2023-02-28T13:24:38;13.9;;;11.9;;
68872;SDS011;55907;50.806;12.882;2023-02-28T13:27:36;13.0;;;11.6;;
68872;SDS011;55907;50.806;12.882;2023-02-28T13:33:41;13.6;;;12.2;;
68872;SDS011;55907;50.806;12.882;2023-02-28T13:36:39;12.3;;;11.2;;
68872;SDS011;55907;50.806;12.882;2023-02-28T13:39:45;13.0;;;11.6;;
68872;SDS011;55907;50.806;12.882;2023-02-28T13:48:45;13.0;;;11.7;;
68872;SDS011;55907;50.806;12.882;2023-02-28T13:51:47;13.5;;;12.1;;
68872;SDS011;55907;50.806;12.882;2023-02-28T13:54:52;13.8;;;12.4;;
68872;SDS011;55907;50.806;12.882;2023-02-28T13:57:57;13.5;;;12.2;;
68872;SDS011;55907;50.806;12.882;2023-02-28T14:01:00;14.5;;;11.9;;
68872;SDS011;55907;50.806;12.882;2023-02-28T14:03:58;13.0;;;11.6;;
68872;SDS011;55907;50.806;12.882;2023-02-28T14:06:54;13.9;;;12.4;;
68872;SDS011;55907;50.806;12.882;2023-02-28T14:09:58;15.5;;;13.1;;
68872;SDS011;55907;50.806;12.882;2023-02-28T14:12:59;14.1;;;12.7;;
68872;SDS011;55907;50.806;12.882;2023-02-28T14:15:59;14.5;;;13.0;;
68872;SDS011;55907;50.806;12.882;2023-02-28T14:19:01;15.4;;;13.8;;
68872;SDS011;55907;50.806;12.882;2023-02-28T14:22:04;15.7;;;14.0;;
68872;SDS011;55907;50.806;12.882;2023-02-28T14:25:08;15.0;;;13.4;;
68872;SDS011;55907;50.806;12.882;2023-02-28T14:28:10;15.9;;;12.8;;
68872;SDS011;55907;50.806;12.882;2023-02-28T14:31:07;14.9;;;13.3;;
68872;SDS011;55907;50.806;12.882;2023-02-28T14:37:13;15.0;;;12.9;;
68872;SDS011;55907;50.806;12.882;2023-02-28T14:40:12;14.3;;;12.8;;
68872;SDS011;55907;50.806;12.882;2023-02-28T14:43:19;17.7;;;12.7;;
68872;SDS011;55907;50.806;12.882;2023-02-28T14:46:14;15.1;;;12.9;;
68872;SDS011;55907;50.806;12.882;2023-02-28T14:49:17;14.8;;;13.2;;
68872;SDS011;55907;50.806;12.882;2023-02-28T14:52:19;16.0;;;13.5;;
68872;SDS011;55907;50.806;12.882;2023-02-28T14:55:19;14.2;;;12.7;;
68872;SDS011;55907;50.806;12.882;2023-02-28T14:58:22;14.7;;;12.6;;
68872;SDS011;55907;50.806;12.882;2023-02-28T15:01:23;14.9;;;13.3;;
68872;SDS011;55907;50.806;12.882;2023-02-28T15:04:25;15.2;;;12.9;;
68872;SDS011;55907;50.806;12.882;2023-02-28T15:07:25;19.1;;;15.2;;
68872;SDS011;55907;50.806;12.882;2023-02-28T15:10:27;13.6;;;11.4;;
68872;SDS011;55907;50.806;12.882;2023-02-28T15:13:31;13.7;;;12.2;;
68872;SDS011;55907;50.806;12.882;2023-02-28T15:16:31;14.9;;;13.1;;
68872;SDS011;55907;50.806;12.882;2023-02-28T15:22:34;13.6;;;12.2;;
68872;SDS011;55907;50.806;12.882;2023-02-28T15:25:34;15.0;;;12.5;;
68872;SDS011;55907;50.806;12.882;2023-02-28T15:28:36;16.7;;;13.3;;
68872;SDS011;55907;50.806;12.882;2023-02-28T15:31:40;14.0;;;12.5;;
68872;SDS011;55907;50.806;12.882;2023-02-28T15:34:40;14.1;;;12.5;;
68872;SDS011;55907;50.806;12.882;2023-02-28T15:37:45;15.2;;;12.7;;
68872;SDS011;55907;50.806;12.882;2023-02-28T15:40:43;14.6;;;12.8;;
68872;SDS011;55907;50.806;12.882;2023-02-28T15:43:44;14.2;;;12.7;;
68872;SDS011;55907;50.806;12.882;2023-02-28T15:46:53;15.7;;;13.6;;
68872;SDS011;55907;50.806;12.882;2023-02-28T15:49:48;16.3;;;13.3;;
68872;SDS011;55907;50.806;12.882;2023-02-28T15:52:48;15.7;;;13.2;;
68872;SDS011;55907;50.806;12.882;2023-02-28T15:55:52;15.9;;;13.8;;
68872;SDS011;55907;50.806;12.882;2023-02-28T15:58:53;16.2;;;13.3;;
68872;SDS011;55907;50.806;12.882;2023-02-28T16:04:57;18.2;;;13.8;;
68872;SDS011;55907;50.806;12.882;2023-02-28T16:07:57;15.9;;;13.6;;
68872;SDS011;55907;50.806;12.882;2023-02-28T16:10:58;16.8;;;13.4;;
68872;SDS011;55907;50.806;12.882;2023-02-28T16:13:59;18.0;;;13.5;;
68872;SDS011;55907;50.806;12.882;2023-02-28T16:17:02;16.8;;;13.5;;
68872;SDS011;55907;50.806;12.882;2023-02-28T16:20:06;16.3;;;12.5;;
68872;SDS011;55907;50.806;12.882;2023-02-28T16:23:04;15.8;;;12.9;;
68872;SDS011;55907;50.806;12.882;2023-02-28T16:26:06;18.6;;;13.0;;
68872;SDS011;55907;50.806;12.882;2023-02-28T16:29:08;18.5;;;13.2;;
68872;SDS011;55907;50.806;12.882;2023-02-28T16:32:10;17.4;;;13.8;;
68872;SDS011;55907;50.806;12.882;2023-02-28T16:35:11;22.6;;;15.7;;
68872;SDS011;55907;50.806;12.882;2023-02-28T16:38:12;21.6;;;14.8;;
68872;SDS011;55907;50.806;12.882;2023-02-28T16:41:15;17.1;;;13.3;;
68872;SDS011;55907;50.806;12.882;2023-02-28T16:44:19;17.8;;;13.8;;
68872;SDS011;55907;50.806;12.882;2023-02-28T16:47:17;17.5;;;13.4;;
68872;SDS011;55907;50.806;12.882;2023-02-28T16:50:19;18.1;;;12.7;;
68872;SDS011;55907;50.806;12.882;2023-02-28T16:53:20;16.9;;;12.9;;
68872;SDS011;55907;50.806;12.882;2023-02-28T16:56:23;17.3;;;13.2;;
68872;SDS011;55907;50.806;12.882;2023-02-28T16:59:24;17.0;;;12.4;;
68872;SDS011;55907;50.806;12.882;2023-02-28T17:02:25;17.3;;;12.2;;
68872;SDS011;55907;50.806;12.882;2023-02-28T17:05:26;18.5;;;12.9;;
68872;SDS011;55907;50.806;12.882;2023-02-28T17:08:28;18.0;;;13.0;;
68872;SDS011;55907;50.806;12.882;2023-02-28T17:11:30;18.7;;;13.1;;
68872;SDS011;55907;50.806;12.882;2023-02-28T17:14:31;19.3;;;14.0;;
68872;SDS011;55907;50.806;12.882;2023-02-28T17:17:33;18.4;;;12.9;;
68872;SDS011;55907;50.806;12.882;2023-02-28T17:20:34;19.2;;;13.3;;
68872;SDS011;55907;50.806;12.882;2023-02-28T17:23:36;18.6;;;12.9;;
68872;SDS011;55907;50.806;12.882;2023-02-28T17:26:38;18.3;;;13.7;;
68872;SDS011;55907;50.806;12.882;2023-02-28T17:29:39;19.4;;;13.5;;
68872;SDS011;55907;50.806;12.882;2023-02-28T17:32:41;19.7;;;13.7;;
68872;SDS011;55907;50.806;12.882;2023-02-28T17:35:42;19.3;;;13.8;;
68872;SDS011;55907;50.806;12.882;2023-02-28T17:38:44;19.1;;;14.1;;
68872;SDS011;55907;50.806;12.882;2023-02-28T17:41:46;20.0;;;14.0;;
68872;SDS011;55907;50.806;12.882;2023-02-28T17:44:47;17.8;;;14.0;;
68872;SDS011;55907;50.806;12.882;2023-02-28T17:47:49;18.5;;;14.4;;
68872;SDS011;55907;50.806;12.882;2023-02-28T17:50:50;21.8;;;14.7;;
68872;SDS011;55907;50.806;12.882;2023-02-28T17:53:52;18.7;;;13.6;;
68872;SDS011;55907;50.806;12.882;2023-02-28T17:56:53;18.9;;;14.3;;
68872;SDS011;55907;50.806;12.882;2023-02-28T17:59:55;19.0;;;13.5;;
68872;SDS011;55907;50.806;12.882;2023-02-28T18:02:57;20.2;;;14.2;;
68872;SDS011;55907;50.806;12.882;2023-02-28T18:05:59;21.6;;;13.8;;
68872;SDS011;55907;50.806;12.882;2023-02-28T18:09:00;19.3;;;13.4;;
68872;SDS011;55907;50.806;12.882;2023-02-28T18:12:02;17.5;;;13.0;;
68872;SDS011;55907;50.806;12.882;2023-02-28T18:15:03;19.7;;;13.4;;
68872;SDS011;55907;50.806;12.882;2023-02-28T18:18:05;21.3;;;13.7;;
68872;SDS011;55907;50.806;12.882;2023-02-28T18:21:07;22.6;;;15.1;;
68872;SDS011;55907;50.806;12.882;2023-02-28T18:24:08;20.0;;;13.6;;
68872;SDS011;55907;50.806;12.882;2023-02-28T18:27:09;19.6;;;13.6;;
68872;SDS011;55907;50.806;12.882;2023-02-28T18:30:11;18.6;;;13.6;;
68872;SDS011;55907;50.806;12.882;2023-02-28T18:33:13;21.5;;;14.0;;
68872;SDS011;55907;50.806;12.882;2023-02-28T18:36:14;20.2;;;13.5;;
68872;SDS011;55907;50.806;12.882;2023-02-28T18:39:16;18.7;;;13.0;;
68872;SDS011;55907;50.806;12.882;2023-02-28T18:42:17;21.6;;;13.7;;
68872;SDS011;55907;50.806;12.882;2023-02-28T18:45:19;20.3;;;13.5;;
68872;SDS011;55907;50.806;12.882;2023-02-28T18:48:21;20.7;;;13.5;;
68872;SDS011;55907;50.806;12.882;2023-02-28T18:51:23;17.8;;;13.2;;
68872;SDS011;55907;50.806;12.882;2023-02-28T18:54:24;19.2;;;13.8;;
68872;SDS011;55907;50.806;12.882;2023-02-28T18:57:25;21.6;;;15.0;;
68872;SDS011;55907;50.806;12.882;2023-02-28T19:00:27;21.9;;;14.0;;
68872;SDS011;55907;50.806;12.882;2023-02-28T19:03:29;20.5;;;14.4;;